createdAt,value
2022-09-13T00:00:46.732Z,99.90
2022-09-13T00:03:15.153Z,99.90
2022-09-13T00:05:43.224Z,99.90
2022-09-13T00:08:11.558Z,99.90
2022-09-13T00:10:42.014Z,99.90
2022-09-13T00:13:11.174Z,99.90
2022-09-13T00:15:44.219Z,99.90
2022-09-13T00:18:12.124Z,99.90
2022-09-13T00:20:40.512Z,99.90
2022-09-13T00:23:08.521Z,99.90
2022-09-13T00:25:36.488Z,99.90
2022-09-13T00:28:06.061Z,99.90
2022-09-13T00:30:34.486Z,99.90
2022-09-13T00:33:04.629Z,99.90
2022-09-13T00:35:35.619Z,99.90
2022-09-13T00:38:03.487Z,99.90
2022-09-13T00:40:31.419Z,99.90
2022-09-13T00:43:03.129Z,99.90
2022-09-13T00:45:33.057Z,99.90
2022-09-13T00:48:05.834Z,99.90
2022-09-13T00:50:36.620Z,99.90
2022-09-13T00:53:07.851Z,99.90
2022-09-13T00:55:41.110Z,99.90
2022-09-13T00:58:14.455Z,99.90
2022-09-13T01:00:45.237Z,99.90
2022-09-13T01:03:16.265Z,99.90
2022-09-13T01:05:49.853Z,99.90
2022-09-13T01:08:22.438Z,99.90
2022-09-13T01:10:51.931Z,99.90
2022-09-13T01:13:22.376Z,99.90
2022-09-13T01:15:52.284Z,99.90
2022-09-13T01:18:20.657Z,99.90
2022-09-13T01:21:20.835Z,99.90
2022-09-13T01:24:13.411Z,99.90
2022-09-13T01:27:20.668Z,99.90
2022-09-13T01:30:15.862Z,99.90
2022-09-13T01:33:12.688Z,99.90
2022-09-13T01:35:51.772Z,99.90
2022-09-13T01:38:47.585Z,99.90
2022-09-13T01:41:29.917Z,99.90
2022-09-13T01:44:03.992Z,99.90
2022-09-13T01:46:40.312Z,99.90
2022-09-13T01:49:16.703Z,99.90
2022-09-13T01:51:50.995Z,99.90
2022-09-13T01:54:23.171Z,99.90
2022-09-13T01:56:57.894Z,99.90
2022-09-13T01:59:34.386Z,99.90
2022-09-13T02:02:07.722Z,99.90
2022-09-13T02:04:40.435Z,99.90
2022-09-13T02:07:13.393Z,99.90
2022-09-13T02:09:45.234Z,99.90
2022-09-13T02:12:17.947Z,99.90
2022-09-13T02:14:52.263Z,99.90
2022-09-13T02:17:24.212Z,99.90
2022-09-13T02:19:56.195Z,99.90
2022-09-13T02:22:29.052Z,99.90
2022-09-13T02:25:00.589Z,99.90
2022-09-13T02:27:33.358Z,99.90
2022-09-13T02:30:05.472Z,99.90
2022-09-13T02:32:37.443Z,99.90
2022-09-13T02:35:08.591Z,99.90
2022-09-13T02:37:39.241Z,99.90
2022-09-13T02:40:12.826Z,99.90
2022-09-13T02:42:45.679Z,99.90
2022-09-13T02:45:15.598Z,99.90
2022-09-13T02:47:53.503Z,99.90
2022-09-13T02:50:33.994Z,99.90
2022-09-13T02:53:07.662Z,99.90
2022-09-13T02:55:43.794Z,99.90
2022-09-13T02:58:15.248Z,99.90
2022-09-13T03:00:43.160Z,99.90
2022-09-13T03:03:15.638Z,99.90
2022-09-13T03:05:43.660Z,99.90
2022-09-13T03:08:14.564Z,99.90
2022-09-13T03:10:53.422Z,99.90
2022-09-13T03:13:38.782Z,99.90
2022-09-13T03:16:19.995Z,99.90
2022-09-13T03:19:05.317Z,99.90
2022-09-13T03:21:52.315Z,99.90
2022-09-13T03:24:26.473Z,99.90
2022-09-13T03:27:07.962Z,99.90
2022-09-13T03:29:45.115Z,99.90
2022-09-13T03:32:36.389Z,99.90
2022-09-13T03:35:15.143Z,99.90
2022-09-13T03:37:53.541Z,99.90
2022-09-13T03:40:27.680Z,99.90
2022-09-13T03:43:03.006Z,99.90
2022-09-13T03:45:33.932Z,99.90
2022-09-13T03:48:03.242Z,99.90
2022-09-13T03:50:33.329Z,99.90
2022-09-13T03:53:03.754Z,99.90
2022-09-13T03:55:33.803Z,99.90
2022-09-13T03:58:01.929Z,99.90
2022-09-13T04:00:30.090Z,99.90
2022-09-13T04:02:57.991Z,99.90
2022-09-13T04:05:25.906Z,99.90
2022-09-13T04:07:55.263Z,99.90
2022-09-13T04:10:25.142Z,99.90
2022-09-13T04:12:55.110Z,99.90
2022-09-13T04:15:23.013Z,99.90
2022-09-13T04:17:50.926Z,99.90
2022-09-13T04:20:19.019Z,99.90
2022-09-13T04:22:53.778Z,99.90
2022-09-13T04:25:22.872Z,99.90
2022-09-13T04:27:55.000Z,99.90
2022-09-13T04:30:23.418Z,99.90
2022-09-13T04:32:51.396Z,99.90
2022-09-13T04:35:19.749Z,99.90
2022-09-13T04:37:47.591Z,99.90
2022-09-13T04:40:17.031Z,99.90
2022-09-13T04:42:45.988Z,99.90
2022-09-13T04:45:14.165Z,99.90
2022-09-13T04:47:42.009Z,99.90
2022-09-13T04:50:10.544Z,99.90
2022-09-13T04:52:38.347Z,99.90
2022-09-13T04:55:07.360Z,99.90
2022-09-13T04:57:36.769Z,99.90
2022-09-13T05:00:06.121Z,99.90
2022-09-13T05:02:34.014Z,99.90
2022-09-13T05:05:01.881Z,99.90
2022-09-13T05:07:29.757Z,99.90
2022-09-13T05:09:57.608Z,99.90
2022-09-13T05:12:25.989Z,99.90
2022-09-13T05:14:56.174Z,99.90
2022-09-13T05:17:24.551Z,99.90
2022-09-13T05:19:52.523Z,99.90
2022-09-13T05:22:20.952Z,99.90
2022-09-13T05:24:49.127Z,99.90
2022-09-13T05:27:17.297Z,99.90
2022-09-13T05:29:45.325Z,99.90
2022-09-13T05:32:25.757Z,99.90
2022-09-13T05:34:53.724Z,99.90
2022-09-13T05:37:21.700Z,99.90
2022-09-13T05:40:10.171Z,99.90
2022-09-13T05:42:37.665Z,99.90
2022-09-13T05:45:07.267Z,99.90
2022-09-13T05:47:36.502Z,99.90
2022-09-13T05:50:22.910Z,99.90
2022-09-13T05:52:54.367Z,99.90
2022-09-13T05:55:22.820Z,99.90
2022-09-13T05:57:51.488Z,99.90
2022-09-13T06:00:19.593Z,99.90
2022-09-13T06:02:49.076Z,99.90
2022-09-13T06:05:17.354Z,99.90
2022-09-13T06:07:45.363Z,99.90
2022-09-13T06:10:13.528Z,99.90
2022-09-13T06:12:41.658Z,99.90
2022-09-13T06:15:11.653Z,99.90
2022-09-13T06:17:40.881Z,99.90
2022-09-13T06:20:11.674Z,99.90
2022-09-13T06:22:39.578Z,99.90
2022-09-13T06:25:09.396Z,99.90
2022-09-13T06:27:37.467Z,99.90
2022-09-13T06:30:10.956Z,99.90
2022-09-13T06:32:39.003Z,99.90
2022-09-13T06:35:08.416Z,99.90
2022-09-13T06:37:40.670Z,99.90
2022-09-13T06:40:09.625Z,99.90
2022-09-13T06:42:38.000Z,99.90
2022-09-13T06:45:07.662Z,99.90
2022-09-13T06:47:35.732Z,99.90
2022-09-13T06:50:06.996Z,99.90
2022-09-13T06:52:36.054Z,99.90
2022-09-13T06:55:09.571Z,99.90
2022-09-13T06:57:41.294Z,99.90
2022-09-13T07:00:11.143Z,99.90
2022-09-13T07:02:39.021Z,99.90
2022-09-13T07:05:08.207Z,99.90
2022-09-13T07:07:37.634Z,99.90
2022-09-13T07:10:08.173Z,99.90
2022-09-13T07:12:36.107Z,99.90
2022-09-13T07:15:04.252Z,99.90
2022-09-13T07:17:32.760Z,99.90
2022-09-13T07:20:00.655Z,99.90
2022-09-13T07:22:28.756Z,99.90
2022-09-13T07:24:57.194Z,99.90
2022-09-13T07:27:26.442Z,99.90
2022-09-13T07:29:54.569Z,99.90
2022-09-13T07:32:22.795Z,99.90
2022-09-13T07:34:50.692Z,99.90
2022-09-13T07:37:18.672Z,99.90
2022-09-13T07:39:47.217Z,99.90
2022-09-13T07:42:15.251Z,99.90
2022-09-13T07:44:47.896Z,99.90
2022-09-13T07:47:16.149Z,99.90
2022-09-13T07:49:43.925Z,99.90
2022-09-13T07:52:12.443Z,99.90
2022-09-13T07:54:40.331Z,99.90
2022-09-13T07:57:08.494Z,99.90
2022-09-13T07:59:36.516Z,99.90
2022-09-13T08:02:06.346Z,99.90
2022-09-13T08:04:36.508Z,99.90
2022-09-13T08:07:04.863Z,99.90
2022-09-13T08:09:33.059Z,99.90
2022-09-13T08:12:01.276Z,99.90
2022-09-13T08:14:29.177Z,99.90
2022-09-13T08:16:58.252Z,99.90
2022-09-13T08:19:28.020Z,99.90
2022-09-13T08:21:55.881Z,99.90
2022-09-13T08:24:24.355Z,99.90
2022-09-13T08:26:55.235Z,99.90
2022-09-13T08:29:25.327Z,99.30
2022-09-13T08:31:53.919Z,51.70
2022-09-13T08:34:22.390Z,36.00
2022-09-13T08:36:51.615Z,12.80
2022-09-13T08:39:23.220Z,16.10
2022-09-13T08:42:14.347Z,1.00
2022-09-13T08:44:46.825Z,1.00
2022-09-13T08:47:34.053Z,1.00
2022-09-13T08:50:10.655Z,1.00
2022-09-13T08:52:56.377Z,1.00
2022-09-13T08:55:31.821Z,1.00
2022-09-13T08:58:11.068Z,99.90
2022-09-13T09:00:44.610Z,1.00
2022-09-13T09:03:22.594Z,1.00
2022-09-13T09:05:52.496Z,99.90
2022-09-13T09:08:33.188Z,99.90
2022-09-13T09:11:08.659Z,99.90
2022-09-13T09:13:40.220Z,72.40
2022-09-13T09:16:18.337Z,1.00
2022-09-13T09:18:48.869Z,1.00
2022-09-13T09:21:19.267Z,1.00
2022-09-13T09:23:52.568Z,99.90
2022-09-13T09:26:23.150Z,89.80
2022-09-13T09:28:55.183Z,90.00
2022-09-13T09:31:30.720Z,78.50
2022-09-13T09:34:12.398Z,79.80
2022-09-13T09:36:43.481Z,66.20
2022-09-13T09:39:16.341Z,67.20
2022-09-13T09:41:45.502Z,65.30
2022-09-13T09:44:20.228Z,67.20
2022-09-13T09:46:56.386Z,87.00
2022-09-13T09:49:50.876Z,91.50
2022-09-13T09:52:22.476Z,90.00
2022-09-13T09:54:52.198Z,65.50
2022-09-13T09:57:20.850Z,63.90
2022-09-13T09:59:49.028Z,60.60
2022-09-13T10:02:22.939Z,56.80
2022-09-13T10:05:01.517Z,53.10
2022-09-13T10:07:34.711Z,61.50
2022-09-13T10:10:08.951Z,68.70
2022-09-13T10:12:39.379Z,56.60
2022-09-13T10:15:17.451Z,50.00
2022-09-13T10:18:02.352Z,50.30
2022-09-13T10:20:31.703Z,49.70
2022-09-13T10:23:19.399Z,51.60
2022-09-13T10:25:59.100Z,46.80
2022-09-13T10:28:27.705Z,44.80
2022-09-13T10:30:58.568Z,41.40
2022-09-13T10:33:30.914Z,38.60
2022-09-13T10:36:01.963Z,36.70
2022-09-13T10:38:35.221Z,43.30
2022-09-13T10:41:08.351Z,40.70
2022-09-13T10:43:37.142Z,40.60
2022-09-13T10:46:12.439Z,38.60
2022-09-13T10:48:55.774Z,41.20
2022-09-13T10:51:36.701Z,39.80
2022-09-13T10:54:20.196Z,49.60
2022-09-13T10:56:51.685Z,30.00
2022-09-13T10:59:29.029Z,44.70
2022-09-13T11:02:29.658Z,32.00
2022-09-13T11:05:18.658Z,30.60
2022-09-13T11:08:18.714Z,32.70
2022-09-13T11:11:01.246Z,35.30
2022-09-13T11:13:44.924Z,36.60
2022-09-13T11:16:27.807Z,38.00
2022-09-13T11:19:18.309Z,40.10
2022-09-13T11:22:00.029Z,41.00
2022-09-13T11:24:46.690Z,42.40
2022-09-13T11:27:27.328Z,42.40
2022-09-13T11:30:13.871Z,36.30
2022-09-13T11:33:00.877Z,36.60
2022-09-13T11:35:43.495Z,39.70
2022-09-13T11:38:36.661Z,35.60
2022-09-13T11:41:23.897Z,37.60
2022-09-13T11:44:09.524Z,33.60
2022-09-13T11:46:44.838Z,34.00
2022-09-13T11:49:51.745Z,33.40
2022-09-13T11:52:29.176Z,24.40
2022-09-13T11:55:06.974Z,25.20
2022-09-13T11:57:39.196Z,24.50
2022-09-13T12:00:17.207Z,24.40
2022-09-13T12:02:58.314Z,22.00
2022-09-13T12:05:30.258Z,22.10
2022-09-13T12:08:03.897Z,21.00
2022-09-13T12:10:39.854Z,19.40
2022-09-13T12:13:14.609Z,18.70
2022-09-13T12:15:44.369Z,15.10
2022-09-13T12:18:19.182Z,15.30
2022-09-13T12:20:51.591Z,14.30
2022-09-13T12:23:26.527Z,14.10
2022-09-13T12:26:00.989Z,13.70
2022-09-13T12:28:37.882Z,11.80
2022-09-13T12:31:11.938Z,11.30
2022-09-13T12:33:51.771Z,9.70
2022-09-13T12:36:41.430Z,13.00
2022-09-13T12:39:40.882Z,15.40
2022-09-13T12:42:35.980Z,16.80
2022-09-13T12:45:24.008Z,16.90
2022-09-13T12:48:15.831Z,16.80
2022-09-13T12:51:00.065Z,17.10
2022-09-13T12:54:02.702Z,17.80
2022-09-13T12:56:44.186Z,17.30
2022-09-13T12:59:49.115Z,19.60
2022-09-13T13:02:38.994Z,22.00
2022-09-13T13:05:20.961Z,19.40
2022-09-13T13:07:55.714Z,19.80
2022-09-13T13:10:30.496Z,15.60
2022-09-13T13:13:14.963Z,15.70
2022-09-13T13:16:22.688Z,13.30
2022-09-13T13:18:52.083Z,10.30
2022-09-13T13:21:39.149Z,4.40
2022-09-13T13:24:46.898Z,3.30
2022-09-13T13:27:38.377Z,1.00
2022-09-13T13:30:56.504Z,1.00
2022-09-13T13:33:29.156Z,1.00
2022-09-13T13:35:57.214Z,1.00
2022-09-13T13:38:48.381Z,1.00
2022-09-13T13:41:41.694Z,1.00
2022-09-13T13:44:47.306Z,1.00
2022-09-13T13:48:05.050Z,1.00
2022-09-13T13:50:37.711Z,1.00
2022-09-13T13:53:25.236Z,1.00
2022-09-13T13:56:18.829Z,1.00
2022-09-13T13:58:53.812Z,1.00
2022-09-13T14:01:38.071Z,1.00
2022-09-13T14:04:46.634Z,1.00
2022-09-13T14:07:34.727Z,1.00
2022-09-13T14:10:11.413Z,1.00
2022-09-13T14:13:17.646Z,1.00
2022-09-13T14:15:56.805Z,1.00
2022-09-13T14:18:49.359Z,1.00
2022-09-13T14:21:24.510Z,1.00
2022-09-13T14:24:08.225Z,1.00
2022-09-13T14:26:38.967Z,1.00
2022-09-13T14:29:12.131Z,1.00
2022-09-13T14:31:48.835Z,1.00
2022-09-13T14:34:26.359Z,1.00
2022-09-13T14:37:01.353Z,1.00
2022-09-13T14:39:30.705Z,1.00
2022-09-13T14:42:08.803Z,1.00
2022-09-13T14:44:37.545Z,1.00
2022-09-13T14:47:20.326Z,1.00
2022-09-13T14:49:51.342Z,1.00
2022-09-13T14:52:25.646Z,1.00
2022-09-13T14:54:57.495Z,1.00
2022-09-13T14:57:34.156Z,1.00
2022-09-13T15:00:12.342Z,1.00
2022-09-13T15:02:47.746Z,1.00
2022-09-13T15:05:21.910Z,1.00
2022-09-13T15:07:51.450Z,1.00
2022-09-13T15:10:28.234Z,1.00
2022-09-13T15:13:09.090Z,1.00
2022-09-13T15:15:39.827Z,1.00
2022-09-13T15:18:27.700Z,1.00
2022-09-13T15:20:58.227Z,1.00
2022-09-13T15:23:38.973Z,1.00
2022-09-13T15:26:09.016Z,1.00
2022-09-13T15:39:54.042Z,1.00
2022-09-13T15:42:22.121Z,1.00
2022-09-13T15:44:50.969Z,1.00
2022-09-13T15:47:36.298Z,1.00
2022-09-13T15:50:20.229Z,1.00
2022-09-13T15:52:51.619Z,1.00
2022-09-13T15:55:50.086Z,1.00
2022-09-13T15:58:19.593Z,1.00
2022-09-13T16:03:20.158Z,1.00
2022-09-13T16:05:50.612Z,1.00
2022-09-13T16:08:23.009Z,1.00
2022-09-13T16:10:55.940Z,1.00
2022-09-13T16:13:24.268Z,1.00
2022-09-13T16:15:57.573Z,1.00
2022-09-13T16:18:27.097Z,1.00
2022-09-13T16:20:56.289Z,1.00
2022-09-13T16:23:25.780Z,1.10
2022-09-13T16:25:58.489Z,1.00
2022-09-13T16:28:27.644Z,2.00
2022-09-13T16:30:56.302Z,2.60
2022-09-13T16:33:28.460Z,2.90
2022-09-13T16:36:01.572Z,4.40
2022-09-13T16:38:36.753Z,4.50
2022-09-13T16:41:08.844Z,6.60
2022-09-13T16:43:38.543Z,9.00
2022-09-13T16:46:14.049Z,10.70
2022-09-13T16:48:44.688Z,10.90
2022-09-13T16:51:15.279Z,13.50
2022-09-13T16:53:44.192Z,14.90
2022-09-13T16:56:17.416Z,17.10
2022-09-13T16:58:48.013Z,16.60
2022-09-13T17:01:24.811Z,16.50
2022-09-13T17:03:59.188Z,20.50
2022-09-13T17:06:28.898Z,21.60
2022-09-13T17:09:01.481Z,21.50
2022-09-13T17:11:33.784Z,21.30
2022-09-13T17:14:04.690Z,31.30
2022-09-13T17:16:37.991Z,32.90
2022-09-13T17:19:11.450Z,40.20
2022-09-13T17:21:40.601Z,47.80
2022-09-13T17:24:13.661Z,56.00
2022-09-13T17:26:44.292Z,67.80
2022-09-13T17:29:13.813Z,87.10
2022-09-13T17:31:43.488Z,89.70
2022-09-13T17:34:13.283Z,92.20
2022-09-13T17:36:43.014Z,95.50
2022-09-13T17:39:18.671Z,96.70
2022-09-13T17:41:49.701Z,96.00
2022-09-13T17:44:19.318Z,97.20
2022-09-13T17:46:51.239Z,96.70
2022-09-13T17:49:20.979Z,92.40
2022-09-13T17:51:51.269Z,92.50
2022-09-13T17:54:31.641Z,92.10
2022-09-13T17:57:04.007Z,92.00
2022-09-13T18:02:03.355Z,94.30
2022-09-13T18:04:33.154Z,99.00
2022-09-13T18:07:01.744Z,99.90
2022-09-13T18:09:30.565Z,99.90
2022-09-13T18:12:00.743Z,99.90
2022-09-13T18:14:29.973Z,99.90
2022-09-13T18:16:58.749Z,99.90
2022-09-13T18:19:46.055Z,99.90
2022-09-13T18:22:15.562Z,99.90
2022-09-13T18:24:45.205Z,99.90
2022-09-13T18:27:23.699Z,99.90
2022-09-13T18:29:53.343Z,99.90
2022-09-13T18:32:22.487Z,99.90
2022-09-13T18:34:53.120Z,99.90
2022-09-13T18:37:23.142Z,99.90
2022-09-13T18:39:51.813Z,99.90
2022-09-13T18:42:24.536Z,99.90
2022-09-13T18:44:52.955Z,99.90
2022-09-13T18:47:28.916Z,99.90
2022-09-13T18:49:57.091Z,99.90
2022-09-13T18:52:28.435Z,99.90
2022-09-13T18:54:59.539Z,99.90
2022-09-13T18:57:30.003Z,99.90
2022-09-13T18:59:59.492Z,99.90
2022-09-13T19:02:28.111Z,99.90
2022-09-13T19:04:57.681Z,99.90
2022-09-13T19:07:26.209Z,99.90
2022-09-13T19:09:57.580Z,99.90
2022-09-13T19:12:29.529Z,99.90
2022-09-13T19:14:59.004Z,99.90
2022-09-13T19:17:28.346Z,99.90
2022-09-13T19:19:58.100Z,99.90
2022-09-13T19:22:30.212Z,99.90
2022-09-13T19:24:59.738Z,99.90
2022-09-13T19:27:29.561Z,99.90
2022-09-13T19:29:59.581Z,99.90
2022-09-13T19:32:28.270Z,99.90
2022-09-13T19:34:58.300Z,99.90
2022-09-13T19:37:28.391Z,99.90
2022-09-13T19:39:57.739Z,99.90
2022-09-13T19:42:27.848Z,99.90
2022-09-13T19:44:58.335Z,99.90
2022-09-13T19:48:13.087Z,99.90
2022-09-13T19:50:18.800Z,99.90
2022-09-13T19:52:48.685Z,99.90
2022-09-13T19:55:18.494Z,99.90
2022-09-13T19:57:51.358Z,99.90
2022-09-13T20:00:24.634Z,99.90
2022-09-13T20:02:52.930Z,99.90
2022-09-13T20:05:27.448Z,99.90
2022-09-13T20:07:57.804Z,99.90
2022-09-13T20:10:26.728Z,99.90
2022-09-13T20:12:58.129Z,99.90
2022-09-13T20:15:31.234Z,99.90
2022-09-13T20:18:00.388Z,99.90
2022-09-13T20:20:29.658Z,99.90
2022-09-13T20:23:01.251Z,99.90
2022-09-13T20:25:30.723Z,99.90
2022-09-13T20:27:59.731Z,99.90
2022-09-13T20:30:30.341Z,99.90
2022-09-13T20:33:00.197Z,99.90
2022-09-13T20:35:33.880Z,99.90
2022-09-13T20:38:08.403Z,99.90
2022-09-13T20:40:37.379Z,99.90
2022-09-13T20:43:06.997Z,99.90
2022-09-13T20:45:37.714Z,99.90
2022-09-13T20:48:11.113Z,99.90
2022-09-13T20:50:43.243Z,99.90
2022-09-13T20:53:13.892Z,99.90
2022-09-13T20:55:43.290Z,99.90
2022-09-13T20:58:12.984Z,99.90
2022-09-13T21:00:44.011Z,99.90
2022-09-13T21:03:13.375Z,99.90
2022-09-13T21:05:45.118Z,99.90
2022-09-13T21:08:35.502Z,99.90
2022-09-13T21:11:07.702Z,99.90
2022-09-13T21:13:37.954Z,99.90
2022-09-13T21:16:11.236Z,99.90
2022-09-13T21:18:41.952Z,99.90
2022-09-13T21:21:15.137Z,99.90
2022-09-13T21:23:46.273Z,99.90
2022-09-13T21:26:16.826Z,99.90
2022-09-13T21:28:45.874Z,99.90
2022-09-13T21:31:21.778Z,99.90
2022-09-13T21:33:55.593Z,99.90
2022-09-13T21:36:25.924Z,99.90
2022-09-13T21:39:03.001Z,99.90
2022-09-13T21:41:34.025Z,99.90
2022-09-13T21:44:04.304Z,99.90
2022-09-13T21:46:37.069Z,99.90
2022-09-13T21:49:10.299Z,99.90
2022-09-13T21:51:42.067Z,99.90
2022-09-13T21:54:14.832Z,99.90
2022-09-13T21:56:46.804Z,99.90
2022-09-13T21:59:19.779Z,99.90
2022-09-13T22:01:56.770Z,99.90
2022-09-13T22:04:31.480Z,99.90
2022-09-13T22:07:00.257Z,99.90
2022-09-13T22:09:31.920Z,99.90
2022-09-13T22:12:02.075Z,99.90
2022-09-13T22:14:33.082Z,99.90
2022-09-13T22:17:06.836Z,99.90
2022-09-13T22:19:35.922Z,99.90
2022-09-13T22:22:08.819Z,99.90
2022-09-13T22:24:38.002Z,99.90
2022-09-13T22:27:08.764Z,99.90
2022-09-13T22:29:42.585Z,99.90
2022-09-13T22:32:14.007Z,99.90
2022-09-13T22:34:43.587Z,99.90
2022-09-13T22:37:16.283Z,99.90
2022-09-13T22:39:45.728Z,99.90
2022-09-13T22:42:15.966Z,99.90
2022-09-13T22:44:48.534Z,99.90
2022-09-13T22:47:25.116Z,99.90
2022-09-13T22:49:56.089Z,99.90
2022-09-13T22:52:25.962Z,99.90
2022-09-13T22:55:00.768Z,99.90
2022-09-13T22:57:30.815Z,99.90
2022-09-13T23:00:05.663Z,99.90
2022-09-13T23:02:37.165Z,99.90
2022-09-13T23:05:07.221Z,99.90
2022-09-13T23:07:36.542Z,99.90
2022-09-13T23:10:05.657Z,99.90
2022-09-13T23:12:34.553Z,99.90
2022-09-13T23:17:32.969Z,99.90
2022-09-13T23:20:03.524Z,99.90
2022-09-13T23:22:32.767Z,99.90
2022-09-13T23:25:00.992Z,99.90
2022-09-13T23:27:33.779Z,99.90
2022-09-13T23:30:04.029Z,99.90
2022-09-13T23:32:34.332Z,99.90
2022-09-13T23:35:03.999Z,99.90
2022-09-13T23:37:35.439Z,99.90
2022-09-13T23:40:07.711Z,99.90
2022-09-13T23:42:37.123Z,99.90
2022-09-13T23:45:09.958Z,99.90
2022-09-13T23:47:38.917Z,99.90
2022-09-13T23:50:14.293Z,99.90
2022-09-13T23:52:45.756Z,99.90
2022-09-13T23:55:18.145Z,99.90
2022-09-13T23:57:47.058Z,99.90
